Monett, MO

9:52 AM CST on December 13, 2019 (GMT -0600)
Monett

Weather History for KHFJ - November, 2019

Change the Weather History Date:

Saturday, November 16, 2019

  Actual Average (WUND) Record (WUND)
Temperature  
Mean Temperature 44 °F -  
Max Temperature 57 °F - - (-1)
Min Temperature 32 °F - - (-1)
Degree Days  
Heating Degree Days 20    
Moisture  
Dew Point 27 °F    
Average Humidity 56    
Maximum Humidity 80    
Minimum Humidity 31    
Precipitation  
Precipitation 0.00 in - - ()
Sea Level Pressure  
Sea Level Pressure 30.18 in    
Wind  
Wind Speed 7 mph ()    
Max Wind Speed 10 mph    
Max Gust Speed -    
Visibility 10.0 miles    
Events      
Averages and records for this station are not official NWS values.
T = Trace of Precipitation, MM = Missing Value Source: Averaged Metar Reports

Daily Weather History Graph

Daily Weather History Graph

Search for Another Location

Airport or City:

Astronomy

Nov. 16, 2019 Rise Set
Actual Time 6:55 AM CST 5:05 PM CST
Civil Twilight 6:27 AM CST 5:33 PM CST
Nautical Twilight 5:56 AM CST 6:05 PM CST
Astronomical Twilight 5:25 AM CST 6:35 PM CST
Moon 8:42 PM CST (11/16) 10:47 AM CST (11/16)
Length of Visible Light 11h 06m
Length of Day
10h 10m
Waning Gibbous, 82% of the Moon is Illuminated
Nov 16
Waning Gibbous
Nov 19
Last Quarter
Nov 26
New
Dec 4
First Quarter
Dec 11
Full

Hourly Weather History & Observations

Time (CST) Temp. Windchill Dew Point Humidity Pressure Visibility Wind Dir Wind Speed Gust Speed Precip Events Conditions
12:55 AM 33.8 °F 28.6 °F 26.6 °F 75% 30.28 in 10.0 mi ESE 5.8 mph - N/A   Clear
1:15 AM 33.8 °F 28.6 °F 26.6 °F 75% 30.28 in 10.0 mi ESE 5.8 mph - N/A   Clear
1:35 AM 33.8 °F 27.7 °F 24.8 °F 70% 30.28 in 10.0 mi ESE 6.9 mph - N/A   Clear
1:55 AM 33.8 °F 27.7 °F 24.8 °F 70% 30.27 in 10.0 mi ESE 6.9 mph - N/A   Clear
2:15 AM 33.8 °F 27.7 °F 24.8 °F 70% 30.27 in 10.0 mi ESE 6.9 mph - N/A   Clear
2:35 AM 32.0 °F 24.8 °F 24.8 °F 75% 30.27 in 10.0 mi ESE 8.1 mph - N/A   Clear
2:55 AM 32.0 °F 25.6 °F 26.6 °F 80% 30.26 in 10.0 mi ESE 6.9 mph - N/A   Clear
3:15 AM 32.0 °F 26.4 °F 26.6 °F 80% 30.27 in 10.0 mi ESE 5.8 mph - N/A   Clear
3:35 AM 32.0 °F 26.4 °F 26.6 °F 80% 30.26 in 10.0 mi SE 5.8 mph - N/A   Clear
4:15 AM 32.0 °F 27.5 °F 26.6 °F 80% 30.26 in 10.0 mi SE 4.6 mph - N/A   Clear
4:35 AM 32.0 °F 26.4 °F 24.8 °F 75% 30.26 in 10.0 mi ESE 5.8 mph - N/A   Clear
4:55 AM 32.0 °F 25.6 °F 24.8 °F 75% 30.26 in 10.0 mi ESE 6.9 mph - N/A   Clear
5:35 AM 32.0 °F 24.8 °F 26.6 °F 80% 30.26 in 10.0 mi ESE 8.1 mph - N/A   Clear
5:55 AM 32.0 °F 24.8 °F 26.6 °F 80% 30.25 in 10.0 mi ESE 8.1 mph - N/A   Clear
6:15 AM 32.0 °F 24.8 °F 26.6 °F 80% 30.25 in 10.0 mi ESE 8.1 mph - N/A   Clear
6:55 AM 32.0 °F 24.2 °F 26.6 °F 80% 30.26 in 10.0 mi ESE 9.2 mph - N/A   Clear
7:20 AM 32.0 °F 24.8 °F 26.6 °F 80% 30.26 in 10.0 mi ESE 8.1 mph - N/A   Clear
7:30 AM 32.0 °F 24.8 °F 26.6 °F 80% 30.26 in 10.0 mi ESE 8.1 mph - N/A   Clear
8:15 AM 33.8 °F 27.7 °F 26.6 °F 75% 30.26 in 10.0 mi ESE 6.9 mph - N/A   Clear
8:35 AM 37.4 °F 32.1 °F 28.4 °F 70% 30.27 in 10.0 mi SE 6.9 mph - N/A   Clear
8:55 AM 39.2 °F 34.2 °F 28.4 °F 65% 30.27 in 10.0 mi SE 6.9 mph - N/A   Clear
9:15 AM 41.0 °F 36.4 °F 28.4 °F 61% 30.27 in 10.0 mi SE 6.9 mph - N/A   Clear
9:35 AM 42.8 °F 38.6 °F 28.4 °F 57% 30.27 in 10.0 mi ESE 6.9 mph - N/A   Clear
9:55 AM 44.6 °F 40.2 °F 28.4 °F 53% 30.27 in 10.0 mi SE 8.1 mph - N/A   Clear
10:35 AM 48.2 °F - 28.4 °F 46% 30.26 in 10.0 mi SE 8.1 mph - N/A   Clear
10:55 AM 50.0 °F - 28.4 °F 43% 30.25 in 10.0 mi ESE 6.9 mph - N/A   Clear
11:15 AM 50.0 °F - 26.6 °F 40% 30.24 in 10.0 mi SE 9.2 mph - N/A   Clear
11:35 AM 51.8 °F - 24.8 °F 35% 30.22 in 10.0 mi SE 6.9 mph - N/A   Clear
11:55 AM 51.8 °F - 24.8 °F 35% 30.21 in 10.0 mi SSE 6.9 mph - N/A   Clear
12:15 PM 53.6 °F - 24.8 °F 33% 30.20 in 10.0 mi SSE 6.9 mph - N/A   Clear
12:35 PM 53.6 °F - 24.8 °F 33% 30.18 in 10.0 mi South 6.9 mph - N/A   Clear
12:55 PM 53.6 °F - 24.8 °F 33% 30.18 in 10.0 mi South 6.9 mph - N/A   Clear
1:15 PM 55.4 °F - 26.6 °F 33% 30.16 in 10.0 mi SSE 4.6 mph - N/A   Clear
1:35 PM 55.4 °F - 26.6 °F 33% 30.15 in 10.0 mi South 4.6 mph - N/A   Clear
1:55 PM 55.4 °F - 26.6 °F 33% 30.15 in 10.0 mi South 8.1 mph - N/A   Clear
2:15 PM 55.4 °F - 28.4 °F 36% 30.13 in 10.0 mi SSE 8.1 mph - N/A   Clear
2:35 PM 55.4 °F - 28.4 °F 36% 30.13 in 10.0 mi SE 8.1 mph - N/A   Clear
3:15 PM 57.2 °F - 26.6 °F 31% 30.10 in 10.0 mi SE 9.2 mph - N/A   Clear
3:35 PM 55.4 °F - 26.6 °F 33% 30.10 in 10.0 mi SE 8.1 mph - N/A   Clear
3:55 PM 55.4 °F - 26.6 °F 33% 30.10 in 10.0 mi SE 8.1 mph - N/A   Clear
4:15 PM 55.4 °F - 26.6 °F 33% 30.09 in 10.0 mi SE 10.4 mph - N/A   Clear
4:35 PM 53.6 °F - 26.6 °F 35% 30.08 in 10.0 mi SE 9.2 mph - N/A   Clear
4:55 PM 51.8 °F - 26.6 °F 38% 30.08 in 10.0 mi ESE 6.9 mph - N/A   Clear
5:15 PM 50.0 °F - 26.6 °F 40% 30.08 in 10.0 mi ESE 6.9 mph - N/A   Clear
6:15 PM 46.4 °F 42.4 °F 28.4 °F 50% 30.09 in 10.0 mi ESE 8.1 mph - N/A   Clear
6:35 PM 46.4 °F 41.9 °F 28.4 °F 50% 30.08 in 10.0 mi ESE 9.2 mph - N/A   Clear
6:55 PM 44.6 °F 39.7 °F 28.4 °F 53% 30.08 in 10.0 mi ESE 9.2 mph - N/A   Clear
7:15 PM 44.6 °F 40.7 °F 28.4 °F 53% 30.08 in 10.0 mi ESE 6.9 mph - N/A   Clear
7:35 PM 44.6 °F 40.2 °F 28.4 °F 53% 30.08 in 10.0 mi ESE 8.1 mph - N/A   Clear
7:55 PM 42.8 °F 38.6 °F 28.4 °F 57% 30.08 in 10.0 mi SE 6.9 mph - N/A   Clear
8:15 PM 42.8 °F 37.0 °F 30.2 °F 61% 30.07 in 10.0 mi SE 10.4 mph - N/A   Clear
8:35 PM 44.6 °F 39.7 °F 30.2 °F 57% 30.07 in 10.0 mi SE 9.2 mph - N/A   Clear
8:55 PM 44.6 °F 40.2 °F 30.2 °F 57% 30.08 in 10.0 mi SE 8.1 mph - N/A   Clear
9:15 PM 44.6 °F 40.7 °F 28.4 °F 53% 30.08 in 10.0 mi SE 6.9 mph - N/A   Clear
9:35 PM 42.8 °F 38.0 °F 28.4 °F 57% 30.08 in 10.0 mi SE 8.1 mph - N/A   Clear
9:55 PM 42.8 °F 39.3 °F 28.4 °F 57% 30.09 in 10.0 mi SSE 5.8 mph - N/A   Clear
10:15 PM 42.8 °F 38.6 °F 28.4 °F 57% 30.08 in 10.0 mi SE 6.9 mph - N/A   Clear
10:35 PM 41.0 °F 35.8 °F 28.4 °F 61% 30.08 in 10.0 mi SE 8.1 mph - N/A   Clear
10:55 PM 42.8 °F 40.1 °F 28.4 °F 57% 30.08 in 10.0 mi SE 4.6 mph - N/A   Clear
11:15 PM 42.8 °F 38.6 °F 28.4 °F 57% 30.08 in 10.0 mi SE 6.9 mph - N/A   Clear
11:35 PM 41.0 °F 37.1 °F 28.4 °F 61% 30.08 in 10.0 mi SE 5.8 mph - N/A   Clear
11:55 PM 42.8 °F 39.3 °F 28.4 °F 57% 30.08 in 10.0 mi SSE 5.8 mph - N/A   Clear